Time;durP1;ratioP1;P1;durP2;ratioP2;P2;SDS_P1;SDS_P2;PMS_P1;PMS_P2;Temp;Humidity;BMP_temperature;BMP_pressure;BME280_temperature;BME280_humidity;BME280_pressure;Samples;Min_cycle;Max_cycle;Signal;HPM_P1;HPM_P2
2022/10/18 00:02:13;;;;;;;8.03;6.50;;;12.50;99.90;;;;;;5085275;28;20632;-49
2022/10/18 00:04:40;;;;;;;26.27;5.87;;;12.40;99.90;;;;;;5091692;28;20769;-49
2022/10/18 00:07:07;;;;;;;9.97;5.80;;;12.40;99.90;;;;;;5092353;28;20260;-49
2022/10/18 00:09:35;;;;;;;9.97;4.30;;;12.40;99.90;;;;;;5092260;28;20272;-49
2022/10/18 00:12:02;;;;;;;11.13;5.50;;;12.30;99.90;;;;;;5079944;28;20243;-49
2022/10/18 00:14:30;;;;;;;5.37;5.07;;;12.30;99.90;;;;;;5082610;28;20233;-49
2022/10/18 00:16:57;;;;;;;6.43;5.37;;;12.30;99.90;;;;;;5074829;28;20211;-49
2022/10/18 00:19:24;;;;;;;6.57;4.60;;;12.20;99.90;;;;;;5078970;28;20204;-50
2022/10/18 00:21:51;;;;;;;22.10;5.10;;;12.10;99.90;;;;;;5091277;28;20212;-49
2022/10/18 00:24:18;;;;;;;8.10;4.50;;;12.20;99.90;;;;;;5075933;28;20216;-49
2022/10/18 00:26:46;;;;;;;7.60;5.90;;;12.20;99.90;;;;;;5080661;28;20673;-49
2022/10/18 00:29:15;;;;;;;5.57;4.30;;;12.10;99.90;;;;;;5071847;28;20207;-49
2022/10/18 00:31:43;;;;;;;4.43;3.90;;;12.10;99.90;;;;;;5081137;28;20200;-49
2022/10/18 00:34:13;;;;;;;8.07;4.57;;;12.00;99.90;;;;;;5070424;28;20716;-51
2022/10/18 00:36:41;;;;;;;5.13;4.57;;;12.00;99.90;;;;;;5071518;28;20743;-49
2022/10/18 00:39:09;;;;;;;7.20;5.70;;;12.10;99.90;;;;;;5083954;28;20257;-49
2022/10/18 00:41:37;;;;;;;5.03;4.50;;;12.10;99.90;;;;;;5091832;28;20207;-49
2022/10/18 00:44:27;;;;;;;6.73;5.47;;;12.10;99.90;;;;;;5091528;28;20230;-49
2022/10/18 00:46:58;;;;;;;8.03;5.50;;;12.10;99.90;;;;;;5088175;28;20248;-50
2022/10/18 00:49:30;;;;;;;5.70;4.90;;;12.10;99.90;;;;;;5086315;28;20260;-48
2022/10/18 00:52:01;;;;;;;6.90;4.70;;;12.20;99.90;;;;;;5081425;28;20201;-48
2022/10/18 00:54:31;;;;;;;7.93;4.87;;;12.10;99.90;;;;;;5074540;28;20655;-49
2022/10/18 00:56:58;;;;;;;4.70;4.17;;;12.10;99.90;;;;;;5087258;28;20249;-49
2022/10/18 00:59:26;;;;;;;6.03;4.50;;;12.10;99.90;;;;;;5091663;28;20196;-49
2022/10/18 01:01:53;;;;;;;9.20;4.50;;;12.20;99.90;;;;;;5091516;28;20280;-49
2022/10/18 01:04:21;;;;;;;5.80;4.80;;;12.10;99.90;;;;;;5077442;28;20266;-49
2022/10/18 01:07:07;;;;;;;5.77;4.60;;;12.20;99.90;;;;;;5082276;28;20269;-49
2022/10/18 01:09:39;;;;;;;5.23;4.63;;;12.10;99.90;;;;;;5074081;28;20668;-49
2022/10/18 01:12:27;;;;;;;5.83;4.53;;;12.10;99.90;;;;;;5079264;28;20681;-49
2022/10/18 01:15:04;;;;;;;6.97;5.30;;;12.10;99.90;;;;;;5075621;28;20204;-49
2022/10/18 01:17:38;;;;;;;6.30;5.70;;;12.00;99.90;;;;;;5082917;28;20263;-49
2022/10/18 01:20:23;;;;;;;5.30;4.80;;;12.00;99.90;;;;;;5084280;28;20328;-49
2022/10/18 01:22:55;;;;;;;5.10;4.67;;;12.00;99.90;;;;;;5091003;28;20235;-49
2022/10/18 01:25:36;;;;;;;5.47;4.87;;;11.90;99.90;;;;;;5079806;28;20215;-49
2022/10/18 01:28:15;;;;;;;6.23;5.10;;;11.80;99.90;;;;;;5074406;28;20226;-49
2022/10/18 01:30:56;;;;;;;5.93;5.40;;;11.80;99.90;;;;;;5082699;28;20195;-49
2022/10/18 01:33:29;;;;;;;7.63;4.67;;;11.70;99.90;;;;;;5090090;28;20227;-49
2022/10/18 01:36:02;;;;;;;8.30;4.87;;;11.70;99.90;;;;;;5091481;28;20205;-50
2022/10/18 01:38:32;;;;;;;8.87;5.33;;;11.60;99.90;;;;;;5091230;28;20219;-49
2022/10/18 01:41:00;;;;;;;12.30;6.00;;;11.60;99.90;;;;;;5086406;28;20205;-49
2022/10/18 01:43:29;;;;;;;13.47;5.93;;;11.60;99.90;;;;;;5077689;28;20777;-50
2022/10/18 01:45:59;;;;;;;8.10;5.47;;;11.60;99.90;;;;;;5082345;28;20221;-49
2022/10/18 01:48:28;;;;;;;16.57;6.27;;;11.50;99.90;;;;;;5089209;28;20666;-49
2022/10/18 01:50:55;;;;;;;5.97;4.97;;;11.60;99.90;;;;;;5094638;28;20616;-50
2022/10/18 01:53:27;;;;;;;5.90;5.40;;;11.90;99.90;;;;;;5092497;28;20276;-49
2022/10/18 01:56:21;;;;;;;5.37;4.87;;;12.10;99.90;;;;;;5081738;28;20246;-50
2022/10/18 01:58:59;;;;;;;8.50;5.07;;;12.20;99.90;;;;;;5087693;28;20265;-49
2022/10/18 02:01:35;;;;;;;8.97;4.87;;;12.30;99.90;;;;;;5079916;28;20257;-49
2022/10/18 02:04:22;;;;;;;4.97;4.50;;;12.40;99.90;;;;;;5085888;28;20307;-49
2022/10/18 02:06:56;;;;;;;6.80;5.27;;;12.40;99.90;;;;;;5091410;28;20198;-49
2022/10/18 02:09:33;;;;;;;7.13;5.17;;;12.40;99.90;;;;;;5080562;28;20202;-49
2022/10/18 02:12:02;;;;;;;7.50;5.37;;;12.40;99.90;;;;;;5094083;28;20200;-49
2022/10/18 02:14:30;;;;;;;5.20;4.70;;;12.30;99.90;;;;;;5093888;28;20610;-49
2022/10/18 02:17:05;;;;;;;10.00;5.20;;;12.30;99.90;;;;;;5095101;28;20207;-49
2022/10/18 02:19:37;;;;;;;7.73;4.53;;;12.30;99.90;;;;;;5080122;28;20208;-49
2022/10/18 02:22:06;;;;;;;5.33;4.83;;;12.30;99.90;;;;;;5085793;28;20210;-49
2022/10/18 02:27:56;;;;;;;5.27;4.73;;;12.30;99.90;;;;;;5082233;28;20227;-49
2022/10/18 02:30:29;;;;;;;4.97;4.47;;;12.30;99.90;;;;;;5079139;28;20619;-49
2022/10/18 02:33:02;;;;;;;8.13;4.83;;;12.30;99.90;;;;;;5081602;28;20699;-49
2022/10/18 02:35:33;;;;;;;4.60;4.20;;;12.30;99.90;;;;;;5081137;28;20226;-50
2022/10/18 02:38:00;;;;;;;8.30;4.43;;;12.30;99.90;;;;;;5073637;28;20781;-49
2022/10/18 02:40:27;;;;;;;10.87;5.23;;;12.40;99.90;;;;;;5073501;28;20249;-51
2022/10/18 02:42:58;;;;;;;9.63;4.67;;;12.40;99.90;;;;;;5073347;28;20286;-49
2022/10/18 02:45:26;;;;;;;4.63;4.23;;;12.50;99.90;;;;;;5075556;28;20219;-49
2022/10/18 02:47:53;;;;;;;13.20;4.87;;;12.40;99.90;;;;;;5092363;28;20198;-49
2022/10/18 02:50:22;;;;;;;5.57;4.43;;;12.40;99.90;;;;;;5093016;28;20246;-49
2022/10/18 02:52:49;;;;;;;11.27;4.77;;;12.40;99.90;;;;;;5090515;28;20236;-49
2022/10/18 02:55:16;;;;;;;11.10;4.23;;;12.40;99.90;;;;;;5072471;28;20257;-49
2022/10/18 03:01:33;;;;;;;6.47;4.57;;;12.60;99.90;;;;;;5073321;28;20226;-49
2022/10/18 03:04:00;;;;;;;7.27;4.30;;;12.60;99.90;;;;;;5072738;28;20247;-51
2022/10/18 03:06:29;;;;;;;3.87;3.50;;;12.70;99.90;;;;;;5077802;28;20219;-50
2022/10/18 03:08:56;;;;;;;6.00;4.00;;;12.70;99.90;;;;;;5080468;28;20208;-51
2022/10/18 03:11:23;;;;;;;6.33;3.90;;;12.70;99.90;;;;;;5081365;28;20269;-51
2022/10/18 03:13:50;;;;;;;4.40;3.63;;;12.70;99.90;;;;;;5072478;28;20254;-51
2022/10/18 03:16:17;;;;;;;4.10;3.37;;;12.70;99.90;;;;;;5073089;28;20203;-49
2022/10/18 03:18:48;;;;;;;4.80;3.60;;;12.60;99.90;;;;;;5072941;28;20205;-49
2022/10/18 03:21:15;;;;;;;6.53;3.63;;;12.60;99.90;;;;;;5074459;28;22118;-50
2022/10/18 03:23:43;;;;;;;7.50;3.67;;;12.50;99.90;;;;;;5080481;28;20246;-50
2022/10/18 03:26:10;;;;;;;4.00;3.17;;;12.50;99.90;;;;;;5085399;28;20691;-49
2022/10/18 03:28:37;;;;;;;4.17;3.87;;;12.50;99.90;;;;;;5087490;28;20632;-49
2022/10/18 03:31:05;;;;;;;9.73;4.27;;;12.50;99.90;;;;;;5080755;28;20199;-49
2022/10/18 03:33:32;;;;;;;7.80;3.73;;;12.50;99.90;;;;;;5072208;28;20274;-49
2022/10/18 03:36:00;;;;;;;5.57;4.33;;;12.50;99.90;;;;;;5076656;28;20207;-50
2022/10/18 03:38:27;;;;;;;3.43;3.10;;;12.40;99.90;;;;;;5083323;28;20660;-51
2022/10/18 03:40:55;;;;;;;5.67;3.50;;;12.40;99.90;;;;;;5080361;28;20327;-49
2022/10/18 03:43:22;;;;;;;4.70;3.93;;;12.30;99.90;;;;;;5080357;28;20234;-49
2022/10/18 03:45:49;;;;;;;6.13;3.77;;;12.40;99.90;;;;;;5092154;28;20777;-49
2022/10/18 03:48:16;;;;;;;5.17;4.00;;;12.30;99.90;;;;;;5084127;28;20197;-49
2022/10/18 03:50:44;;;;;;;11.60;4.83;;;12.30;99.90;;;;;;5071947;28;20199;-49
2022/10/18 03:53:11;;;;;;;8.43;4.13;;;12.30;99.90;;;;;;5087253;28;20279;-49
2022/10/18 03:55:38;;;;;;;6.67;5.00;;;12.40;99.90;;;;;;5088363;28;20203;-48
2022/10/18 03:58:07;;;;;;;7.70;4.77;;;12.50;99.90;;;;;;5092001;28;20206;-49
2022/10/18 04:00:37;;;;;;;5.50;4.67;;;12.50;99.90;;;;;;5089064;28;20203;-49
2022/10/18 04:03:06;;;;;;;5.87;3.47;;;12.40;99.90;;;;;;5081354;28;20223;-49
2022/10/18 04:05:34;;;;;;;17.27;6.33;;;12.30;99.90;;;;;;5086910;28;20298;-49
2022/10/18 04:08:01;;;;;;;6.80;4.90;;;12.30;99.90;;;;;;5075274;28;20209;-49
2022/10/18 04:10:28;;;;;;;7.20;5.03;;;12.30;99.90;;;;;;5085736;28;20202;-50
2022/10/18 04:12:55;;;;;;;6.40;4.30;;;12.30;99.90;;;;;;5078048;28;20225;-49
2022/10/18 04:15:23;;;;;;;4.90;4.50;;;12.30;99.90;;;;;;5084168;28;20199;-49
2022/10/18 04:17:51;;;;;;;8.47;5.33;;;12.20;99.90;;;;;;5087598;28;20202;-49
2022/10/18 04:20:18;;;;;;;19.37;5.77;;;12.20;99.90;;;;;;5085267;28;20222;-49
2022/10/18 04:22:47;;;;;;;8.87;5.23;;;12.20;99.90;;;;;;5085762;28;20368;-49
2022/10/18 04:25:14;;;;;;;14.07;4.57;;;12.30;99.90;;;;;;5073730;28;20285;-49
2022/10/18 04:27:42;;;;;;;15.80;5.87;;;12.30;99.90;;;;;;5070861;28;20202;-49
2022/10/18 04:30:10;;;;;;;6.53;4.53;;;12.40;99.90;;;;;;5072701;28;20262;-49
2022/10/18 04:32:38;;;;;;;4.17;3.87;;;12.50;99.90;;;;;;5072227;28;20637;-49
2022/10/18 04:35:06;;;;;;;8.00;4.97;;;12.50;99.90;;;;;;5074552;28;20219;-49
2022/10/18 04:37:33;;;;;;;6.30;4.33;;;12.50;99.90;;;;;;5081744;28;20265;-49
2022/10/18 04:40:00;;;;;;;10.47;4.93;;;12.40;99.90;;;;;;5078680;28;20197;-49
2022/10/18 04:42:27;;;;;;;10.07;4.43;;;12.40;99.90;;;;;;5084605;28;20268;-49
2022/10/18 04:44:55;;;;;;;7.13;5.57;;;12.20;99.90;;;;;;5081872;28;20207;-49
2022/10/18 04:47:22;;;;;;;7.80;4.33;;;12.20;99.90;;;;;;5080805;28;20249;-49
2022/10/18 04:49:51;;;;;;;6.83;4.30;;;12.10;99.90;;;;;;5082680;28;20212;-49
2022/10/18 04:52:18;;;;;;;8.03;4.43;;;12.10;99.90;;;;;;5080132;28;20223;-49
2022/10/18 04:54:45;;;;;;;12.27;4.17;;;12.10;99.90;;;;;;5074371;28;20209;-49
2022/10/18 04:57:12;;;;;;;8.37;3.93;;;12.10;99.90;;;;;;5080101;28;20318;-49
2022/10/18 04:59:39;;;;;;;7.23;4.53;;;12.10;99.90;;;;;;5076963;28;20197;-49
2022/10/18 05:02:06;;;;;;;8.10;3.70;;;12.10;99.90;;;;;;5077703;28;20198;-49
2022/10/18 05:04:33;;;;;;;5.97;3.87;;;12.10;99.90;;;;;;5070468;28;20669;-49
2022/10/18 05:07:01;;;;;;;6.87;4.50;;;12.10;99.90;;;;;;5075924;28;20713;-49
2022/10/18 05:09:28;;;;;;;10.40;4.23;;;12.20;99.90;;;;;;5073998;28;20667;-50
2022/10/18 05:11:55;;;;;;;8.77;3.40;;;12.20;99.90;;;;;;5073428;28;20654;-50
2022/10/18 05:14:22;;;;;;;6.20;3.57;;;12.20;99.90;;;;;;5080760;28;20582;-49
2022/10/18 05:16:49;;;;;;;9.43;3.33;;;12.20;99.90;;;;;;5080681;28;20204;-49
2022/10/18 05:19:16;;;;;;;7.27;4.00;;;12.20;99.90;;;;;;5089043;28;20242;-49
2022/10/18 05:21:46;;;;;;;10.17;3.80;;;12.20;99.90;;;;;;5083972;28;20695;-52
2022/10/18 05:24:14;;;;;;;5.97;3.53;;;12.30;99.90;;;;;;5081049;28;20277;-49
2022/10/18 05:26:41;;;;;;;11.83;3.90;;;12.30;99.90;;;;;;5081717;28;20209;-50
2022/10/18 05:29:08;;;;;;;7.93;4.63;;;12.30;99.90;;;;;;5075278;28;20234;-49
2022/10/18 05:31:35;;;;;;;6.67;3.47;;;12.30;99.90;;;;;;5074222;28;20197;-50
2022/10/18 05:34:03;;;;;;;3.47;3.17;;;12.30;99.90;;;;;;5073843;28;20281;-50
2022/10/18 05:36:30;;;;;;;4.37;3.20;;;12.20;99.90;;;;;;5074089;28;20185;-52
2022/10/18 05:38:57;;;;;;;8.30;3.23;;;12.20;99.90;;;;;;5077811;28;20256;-50
2022/10/18 05:41:25;;;;;;;3.90;3.33;;;12.20;99.90;;;;;;5078463;28;20193;-50
2022/10/18 05:43:52;;;;;;;4.67;3.33;;;12.10;99.90;;;;;;5078268;28;20231;-50
2022/10/18 05:46:19;;;;;;;7.13;4.13;;;12.10;99.90;;;;;;5082100;28;20310;-49
2022/10/18 05:48:50;;;;;;;8.00;3.67;;;12.20;99.90;;;;;;5083671;28;20201;-49
2022/10/18 05:51:18;;;;;;;5.20;3.50;;;12.20;99.90;;;;;;5084060;28;20233;-50
2022/10/18 05:53:46;;;;;;;4.33;3.40;;;12.20;99.90;;;;;;5075310;28;20224;-49
2022/10/18 05:56:13;;;;;;;7.87;3.30;;;12.20;99.90;;;;;;5073858;28;20662;-49
2022/10/18 05:58:46;;;;;;;4.20;3.73;;;12.30;99.90;;;;;;5082887;28;20200;-49
2022/10/18 06:01:13;;;;;;;14.33;4.33;;;12.30;99.90;;;;;;5084988;28;20261;-51
2022/10/18 06:03:40;;;;;;;9.33;4.93;;;12.30;99.90;;;;;;5079437;28;20216;-49
2022/10/18 06:06:08;;;;;;;14.90;4.90;;;12.40;99.90;;;;;;5077207;28;20593;-49
2022/10/18 06:08:36;;;;;;;23.90;5.43;;;12.30;99.90;;;;;;5083571;28;20245;-49
2022/10/18 06:11:07;;;;;;;18.73;6.20;;;12.40;99.90;;;;;;5085791;28;20664;-50
2022/10/18 06:13:34;;;;;;;17.17;5.00;;;12.40;99.90;;;;;;5072727;28;20267;-49
2022/10/18 06:16:02;;;;;;;14.07;5.60;;;12.40;99.90;;;;;;5081741;28;20195;-49
2022/10/18 06:18:29;;;;;;;12.80;4.37;;;12.40;99.90;;;;;;5087177;28;20890;-49
2022/10/18 06:20:57;;;;;;;11.43;4.50;;;12.50;99.90;;;;;;5079373;28;20802;-49
2022/10/18 06:23:24;;;;;;;13.80;6.10;;;12.50;99.90;;;;;;5078204;28;20225;-49
2022/10/18 06:25:51;;;;;;;12.10;4.87;;;12.50;99.90;;;;;;5082456;28;20221;-49
2022/10/18 06:28:18;;;;;;;12.60;5.07;;;12.50;99.90;;;;;;5080813;28;20209;-49
2022/10/18 06:30:45;;;;;;;13.00;4.97;;;12.60;99.90;;;;;;5082297;28;20618;-49
2022/10/18 06:33:14;;;;;;;8.27;5.40;;;12.70;99.90;;;;;;5093405;28;20281;-49
2022/10/18 06:35:41;;;;;;;7.90;5.27;;;12.70;99.90;;;;;;5084669;28;20197;-50
2022/10/18 06:38:08;;;;;;;11.83;5.43;;;12.80;99.90;;;;;;5080455;28;20205;-49
2022/10/18 06:40:36;;;;;;;7.43;4.97;;;12.80;99.90;;;;;;5090671;28;20196;-50
2022/10/18 06:43:06;;;;;;;6.50;4.33;;;12.90;99.90;;;;;;5093402;28;20300;-49
2022/10/18 06:45:34;;;;;;;24.80;7.40;;;13.00;99.90;;;;;;5084546;28;20208;-49
2022/10/18 06:48:01;;;;;;;16.03;5.30;;;13.10;99.90;;;;;;5081288;28;20272;-49
2022/10/18 06:50:29;;;;;;;9.83;5.23;;;13.20;99.90;;;;;;5084629;28;20283;-50
2022/10/18 06:52:56;;;;;;;19.37;8.80;;;13.20;99.90;;;;;;5084879;28;20233;-49
2022/10/18 06:55:23;;;;;;;20.07;9.30;;;13.30;99.90;;;;;;5081494;28;20201;-49
2022/10/18 06:57:50;;;;;;;12.07;6.57;;;13.40;99.90;;;;;;5082575;28;20282;-50
2022/10/18 07:00:17;;;;;;;10.27;5.73;;;13.50;99.90;;;;;;5079091;28;20197;-50
2022/10/18 07:02:44;;;;;;;11.00;4.83;;;13.60;99.90;;;;;;5088768;28;20226;-49
2022/10/18 07:05:11;;;;;;;6.43;5.30;;;13.60;99.90;;;;;;5090880;28;20249;-50
2022/10/18 07:07:40;;;;;;;9.40;5.13;;;13.70;99.90;;;;;;5091510;28;20281;-49
2022/10/18 07:10:08;;;;;;;10.37;6.27;;;13.80;99.90;;;;;;5090995;28;20257;-50
2022/10/18 07:12:34;;;;;;;5.83;4.10;;;13.80;99.90;;;;;;5081762;28;20213;-50
2022/10/18 07:15:01;;;;;;;7.77;4.57;;;13.90;99.90;;;;;;5074472;28;20247;-49
2022/10/18 07:17:28;;;;;;;10.57;4.27;;;14.00;99.90;;;;;;5072110;28;20238;-50
2022/10/18 07:19:55;;;;;;;6.03;3.97;;;14.10;99.90;;;;;;5072049;28;20205;-49
2022/10/18 07:22:22;;;;;;;6.57;3.97;;;14.30;99.90;;;;;;5072717;28;20289;-50
2022/10/18 07:24:51;;;;;;;3.30;3.10;;;14.40;99.90;;;;;;5072028;28;20309;-49
2022/10/18 07:27:17;;;;;;;6.23;3.63;;;14.50;99.90;;;;;;5072220;28;20209;-49
2022/10/18 07:29:44;;;;;;;5.03;3.77;;;14.60;99.90;;;;;;5081189;28;20201;-49
2022/10/18 07:32:11;;;;;;;9.20;4.40;;;14.60;99.90;;;;;;5071602;28;20194;-50
2022/10/18 07:34:38;;;;;;;5.10;4.17;;;14.50;99.90;;;;;;5071827;28;20193;-49
2022/10/18 07:37:05;;;;;;;9.93;5.03;;;14.60;99.90;;;;;;5071836;28;20280;-49
2022/10/18 07:39:32;;;;;;;6.60;4.20;;;14.70;99.90;;;;;;5071984;28;20201;-49
2022/10/18 07:42:01;;;;;;;4.33;3.80;;;14.80;99.90;;;;;;5071248;28;20410;-50
2022/10/18 07:44:27;;;;;;;8.47;3.53;;;14.90;99.90;;;;;;5073802;28;20266;-49
2022/10/18 07:46:54;;;;;;;3.93;3.63;;;15.00;99.90;;;;;;5077315;28;20216;-49
2022/10/18 07:49:22;;;;;;;4.33;3.07;;;15.10;99.90;;;;;;5079639;28;20193;-49
2022/10/18 07:51:49;;;;;;;7.37;2.90;;;15.10;99.90;;;;;;5073124;28;20663;-50
2022/10/18 07:54:16;;;;;;;3.77;3.47;;;15.10;99.90;;;;;;5071070;28;20663;-49
2022/10/18 07:56:43;;;;;;;8.10;3.50;;;15.20;99.90;;;;;;5071704;28;20252;-49
2022/10/18 07:59:11;;;;;;;6.70;4.57;;;15.10;99.90;;;;;;5074724;28;20760;-48
2022/10/18 08:01:38;;;;;;;9.40;3.77;;;15.10;99.90;;;;;;5074908;28;20197;-49
2022/10/18 08:04:05;;;;;;;3.30;3.10;;;15.20;99.90;;;;;;5080010;28;20213;-50
2022/10/18 08:06:32;;;;;;;3.27;3.00;;;15.20;99.90;;;;;;5081823;28;20216;-49
2022/10/18 08:08:59;;;;;;;6.97;3.40;;;15.30;99.90;;;;;;5072776;28;20266;-49
2022/10/18 08:11:26;;;;;;;3.97;2.93;;;15.50;99.90;;;;;;5085662;28;20200;-49
2022/10/18 08:13:53;;;;;;;4.37;3.93;;;15.50;99.90;;;;;;5089631;28;20228;-50
2022/10/18 08:16:24;;;;;;;7.37;3.83;;;15.50;99.90;;;;;;5086602;28;20204;-49
2022/10/18 08:18:51;;;;;;;3.43;3.07;;;15.50;99.90;;;;;;5074370;28;20204;-49
2022/10/18 08:21:20;;;;;;;5.43;3.80;;;15.40;99.90;;;;;;5072115;28;20204;-49
2022/10/18 08:23:50;;;;;;;3.40;3.13;;;15.40;99.90;;;;;;5078782;28;20619;-50
2022/10/18 08:26:18;;;;;;;6.20;3.80;;;15.50;99.90;;;;;;5071052;28;20270;-49
2022/10/18 08:28:50;;;;;;;9.00;3.87;;;15.60;99.90;;;;;;5084012;28;20318;-49
2022/10/18 08:31:19;;;;;;;8.20;3.33;;;15.70;99.90;;;;;;5087520;28;20223;-49
2022/10/18 08:33:50;;;;;;;4.93;3.23;;;15.80;99.90;;;;;;5081790;28;20220;-50
2022/10/18 08:36:20;;;;;;;3.50;3.30;;;15.90;99.90;;;;;;5076392;28;20204;-50
2022/10/18 08:38:48;;;;;;;5.53;3.10;;;16.10;99.90;;;;;;5070714;28;20319;-50
2022/10/18 08:41:39;;;;;;;5.37;2.90;;;16.10;99.90;;;;;;5070739;28;20201;-49
2022/10/18 08:44:11;;;;;;;7.67;3.23;;;16.60;99.90;;;;;;5067753;28;20217;-49
2022/10/18 08:46:44;;;;;;;5.60;3.40;;;17.70;99.90;;;;;;5074238;28;20224;-51
2022/10/18 08:49:21;;;;;;;5.37;3.30;;;18.70;99.90;;;;;;5078467;28;20276;-49
2022/10/18 08:51:50;;;;;;;4.60;3.17;;;20.00;99.90;;;;;;5071758;28;20251;-50
2022/10/18 08:54:24;;;;;;;5.27;4.03;;;20.80;99.90;;;;;;5077094;28;20768;-50
2022/10/18 08:56:59;;;;;;;4.40;2.67;;;21.30;99.90;;;;;;5074925;28;20197;-50
2022/10/18 08:59:29;;;;;;;6.03;3.30;;;21.90;99.90;;;;;;5074505;28;20279;-50
2022/10/18 09:02:06;;;;;;;4.30;3.53;;;22.40;99.90;;;;;;5074162;28;20193;-50
2022/10/18 09:04:46;;;;;;;3.77;2.97;;;22.70;99.90;;;;;;5081965;28;20563;-52
2022/10/18 09:07:50;;;;;;;6.67;3.63;;;23.10;99.90;;;;;;5074343;28;20267;-50
2022/10/18 09:10:26;;;;;;;4.80;3.10;;;23.50;99.90;;;;;;5024212;28;20206;-50
2022/10/18 09:13:07;;;;;;;4.83;4.07;;;23.30;99.90;;;;;;5066739;28;20780;-50
2022/10/18 09:15:43;;;;;;;4.70;3.20;;;23.40;99.90;;;;;;5074166;28;20204;-51
2022/10/18 09:18:26;;;;;;;3.87;3.50;;;23.10;99.90;;;;;;5092712;28;20654;-50
2022/10/18 09:20:57;;;;;;;4.87;3.63;;;23.30;99.90;;;;;;5080219;28;20294;-50
2022/10/18 09:23:39;;;;;;;4.20;3.33;;;23.40;99.90;;;;;;5087884;28;20282;-49
2022/10/18 09:26:14;;;;;;;6.87;2.67;;;23.20;99.90;;;;;;5093073;28;20192;-50
2022/10/18 09:28:57;;;;;;;5.00;2.87;;;23.40;99.90;;;;;;5073974;28;20216;-50
2022/10/18 09:31:32;;;;;;;3.07;2.47;;;23.40;99.90;;;;;;5074133;28;20201;-50
2022/10/18 09:34:03;;;;;;;4.93;3.17;;;23.70;99.90;;;;;;5073750;28;20212;-50
2022/10/18 09:36:36;;;;;;;3.80;3.33;;;23.60;99.90;;;;;;5080361;28;20729;-50
2022/10/18 09:39:05;;;;;;;4.07;2.23;;;23.80;99.90;;;;;;5081498;28;20254;-49
2022/10/18 09:41:39;;;;;;;3.03;2.83;;;23.80;99.90;;;;;;5074004;28;20551;-50
2022/10/18 09:44:14;;;;;;;2.87;2.43;;;24.00;99.90;;;;;;5081090;28;20222;-50
2022/10/18 09:46:44;;;;;;;6.87;3.00;;;24.00;99.90;;;;;;5073515;28;20688;-50
2022/10/18 09:49:16;;;;;;;2.90;2.70;;;24.00;99.90;;;;;;5081375;28;20659;-50
2022/10/18 09:51:48;;;;;;;3.77;3.23;;;23.90;99.90;;;;;;5083910;28;20261;-50
2022/10/18 09:54:24;;;;;;;4.07;3.30;;;24.00;99.90;;;;;;5088520;28;20224;-50
2022/10/18 09:56:56;;;;;;;3.47;3.27;;;24.10;99.90;;;;;;5081230;28;20291;-49
2022/10/18 09:59:37;;;;;;;3.23;2.73;;;24.20;99.90;;;;;;5086336;28;20250;-50
2022/10/18 10:02:05;;;;;;;3.07;2.77;;;24.40;99.90;;;;;;5086057;28;20554;-51
2022/10/18 10:04:32;;;;;;;4.80;2.77;;;24.50;99.90;;;;;;5093701;28;20258;-50
2022/10/18 10:07:01;;;;;;;2.60;2.40;;;24.70;99.90;;;;;;5089851;28;20287;-50
2022/10/18 10:09:30;;;;;;;3.00;1.90;;;24.80;99.90;;;;;;5085771;28;20208;-51
2022/10/18 10:11:58;;;;;;;2.50;2.30;;;24.90;99.90;;;;;;5074194;28;20197;-52
2022/10/18 10:14:27;;;;;;;3.33;2.83;;;24.80;99.90;;;;;;5073581;28;20197;-50
2022/10/18 10:16:56;;;;;;;3.00;2.50;;;24.90;99.90;;;;;;5073826;28;20224;-50
2022/10/18 10:19:28;;;;;;;2.60;2.37;;;25.20;99.90;;;;;;5078215;28;20197;-49
2022/10/18 10:22:00;;;;;;;5.13;1.93;;;25.60;99.90;;;;;;5080525;28;20212;-51
2022/10/18 10:24:37;;;;;;;4.83;2.10;;;25.10;99.90;;;;;;5085531;28;20209;-51
2022/10/18 10:27:06;;;;;;;2.17;2.07;;;25.30;99.90;;;;;;5085647;28;20603;-51
2022/10/18 10:29:56;;;;;;;2.30;1.87;;;25.30;99.90;;;;;;5108395;28;20277;-51
2022/10/18 10:32:26;;;;;;;1.73;1.63;;;25.00;99.90;;;;;;5081575;28;20299;-51
2022/10/18 10:34:53;;;;;;;1.93;1.80;;;24.80;99.90;;;;;;5073376;28;20205;-52
2022/10/18 10:37:26;;;;;;;7.23;6.67;;;24.40;99.90;;;;;;5073341;28;20201;-51
2022/10/18 10:40:16;;;;;;;6.53;5.80;;;23.30;99.90;;;;;;5079517;28;20258;-50
2022/10/18 10:42:55;;;;;;;6.97;6.47;;;22.80;99.90;;;;;;5093157;28;20810;-50
2022/10/18 10:45:23;;;;;;;7.20;6.53;;;22.40;99.90;;;;;;5093238;28;20200;-50
2022/10/18 10:47:53;;;;;;;5.93;5.40;;;22.40;99.90;;;;;;5093257;28;20220;-50
2022/10/18 10:50:25;;;;;;;5.80;5.30;;;22.30;99.90;;;;;;5085070;28;20193;-50
2022/10/18 10:52:53;;;;;;;4.83;4.43;;;22.20;99.90;;;;;;5082284;28;20299;-50
2022/10/18 10:55:26;;;;;;;4.53;3.70;;;22.20;99.90;;;;;;5082182;28;20193;-49
2022/10/18 10:57:54;;;;;;;4.93;4.07;;;22.30;99.90;;;;;;5077784;28;20603;-50
2022/10/18 11:00:43;;;;;;;6.23;5.07;;;22.30;99.90;;;;;;5084604;28;20228;-50
2022/10/18 11:03:14;;;;;;;7.57;5.20;;;22.20;99.90;;;;;;5090632;28;20216;-50
2022/10/18 11:05:47;;;;;;;6.70;5.77;;;22.10;99.90;;;;;;5091323;28;20245;-50
2022/10/18 11:08:18;;;;;;;8.43;5.03;;;22.20;99.90;;;;;;5081389;28;20216;-51
2022/10/18 11:11:02;;;;;;;10.03;6.17;;;22.00;99.90;;;;;;5073420;28;20251;-50
2022/10/18 11:13:45;;;;;;;7.93;5.87;;;21.90;99.90;;;;;;5074517;28;20220;-50
2022/10/18 11:16:17;;;;;;;6.10;5.57;;;21.90;99.90;;;;;;5078055;28;20212;-50
2022/10/18 11:18:52;;;;;;;7.27;6.43;;;21.90;99.90;;;;;;5071776;28;20262;-51
2022/10/18 11:21:22;;;;;;;12.57;6.90;;;21.90;99.90;;;;;;5072065;28;20193;-50
2022/10/18 11:23:50;;;;;;;8.20;6.80;;;21.90;99.90;;;;;;5072444;28;20227;-50
2022/10/18 11:26:47;;;;;;;11.57;8.40;;;21.90;99.90;;;;;;5080643;28;20204;-49
2022/10/18 11:29:32;;;;;;;7.83;7.07;;;21.70;99.90;;;;;;5072161;28;20373;-51
2022/10/18 11:32:09;;;;;;;7.93;7.15;;;21.60;99.90;;;;;;5082062;28;20520;-49
2022/10/18 11:34:54;;;;;;;10.73;7.73;;;21.60;99.90;;;;;;5071943;28;20204;-50
2022/10/18 11:37:41;;;;;;;9.83;7.60;;;21.50;99.90;;;;;;5072213;28;20208;-50
2022/10/18 11:40:21;;;;;;;8.60;6.30;;;21.40;99.90;;;;;;5077813;28;20204;-51
2022/10/18 11:42:56;;;;;;;6.23;5.73;;;21.30;99.90;;;;;;5081447;28;20212;-51
2022/10/18 11:45:32;;;;;;;9.00;6.17;;;21.20;99.90;;;;;;5092336;28;20572;-51
2022/10/18 11:48:05;;;;;;;6.33;5.93;;;21.10;99.90;;;;;;5092729;28;20219;-49
2022/10/18 11:50:40;;;;;;;7.87;7.37;;;21.10;99.90;;;;;;5092587;28;20247;-51
2022/10/18 11:53:17;;;;;;;7.27;6.63;;;21.20;99.90;;;;;;5091312;28;20224;-50
2022/10/18 11:56:00;;;;;;;5.37;4.87;;;21.20;99.90;;;;;;5090274;28;20211;-50
2022/10/18 11:58:42;;;;;;;6.67;6.00;;;21.30;99.90;;;;;;5072188;28;20280;-49
2022/10/18 12:01:18;;;;;;;5.97;5.43;;;21.30;99.90;;;;;;5072093;28;20280;-50
2022/10/18 12:03:54;;;;;;;6.33;5.83;;;21.40;99.90;;;;;;5071899;28;20224;-50
2022/10/18 12:06:26;;;;;;;7.43;6.60;;;21.50;99.90;;;;;;5071961;28;20649;-51
2022/10/18 12:08:58;;;;;;;6.77;5.67;;;21.50;99.90;;;;;;5075089;28;20229;-50
2022/10/18 12:11:29;;;;;;;8.40;6.47;;;21.30;99.90;;;;;;5076887;28;20670;-50
2022/10/18 12:14:01;;;;;;;7.17;6.10;;;21.20;99.90;;;;;;5071552;28;20733;-50
2022/10/18 12:16:33;;;;;;;6.60;6.00;;;21.20;99.90;;;;;;5072034;28;20204;-50
2022/10/18 12:19:04;;;;;;;6.63;5.30;;;21.10;99.90;;;;;;5071917;28;20613;-50
2022/10/18 12:21:34;;;;;;;6.43;5.83;;;21.00;99.90;;;;;;5073189;28;20315;-51
2022/10/18 12:24:06;;;;;;;8.57;5.43;;;21.10;99.90;;;;;;5088996;28;20274;-50
2022/10/18 12:26:34;;;;;;;6.37;5.57;;;21.00;99.90;;;;;;5075515;28;20197;-51
2022/10/18 12:29:16;;;;;;;11.90;6.87;;;21.20;99.90;;;;;;5071861;28;20703;-50
2022/10/18 12:31:46;;;;;;;5.67;5.17;;;21.10;99.90;;;;;;5071848;28;20201;-51
2022/10/18 12:34:28;;;;;;;6.50;5.93;;;21.20;99.90;;;;;;5071400;28;20714;-51
2022/10/18 12:37:28;;;;;;;8.17;5.27;;;21.30;99.90;;;;;;5071718;28;20209;-50
2022/10/18 12:40:00;;;;;;;4.70;4.40;;;21.40;99.90;;;;;;5067994;28;20201;-50
2022/10/18 12:42:29;;;;;;;5.50;5.00;;;21.30;99.90;;;;;;5084511;28;20697;-50
2022/10/18 12:45:29;;;;;;;5.87;4.10;;;21.20;99.90;;;;;;5079509;28;20201;-51
2022/10/18 12:47:59;;;;;;;5.10;3.90;;;21.30;99.90;;;;;;5082527;28;20216;-51
2022/10/18 12:50:36;;;;;;;5.40;4.30;;;21.40;99.90;;;;;;5091831;28;20197;-50
2022/10/18 12:53:16;;;;;;;4.37;3.97;;;21.40;99.90;;;;;;5091344;28;20270;-50
2022/10/18 12:55:45;;;;;;;4.03;3.63;;;21.50;99.90;;;;;;5091845;28;20260;-50
2022/10/18 12:58:27;;;;;;;3.57;3.37;;;21.50;99.90;;;;;;5077050;28;20201;-51
2022/10/18 13:01:00;;;;;;;5.17;3.40;;;21.50;99.90;;;;;;5090370;28;20201;-51
2022/10/18 13:03:52;;;;;;;4.00;3.80;;;21.60;99.90;;;;;;5091362;28;20929;-50
2022/10/18 13:06:20;;;;;;;4.83;3.13;;;21.60;99.90;;;;;;5082927;28;20291;-50
2022/10/18 13:08:49;;;;;;;5.00;4.60;;;21.70;99.90;;;;;;5091476;28;20919;-51
2022/10/18 13:11:43;;;;;;;6.77;4.13;;;21.70;99.90;;;;;;5091541;28;20204;-51
2022/10/18 13:14:36;;;;;;;4.70;4.30;;;21.70;99.90;;;;;;5077234;28;20259;-50